Time;durP1;ratioP1;P1;durP2;ratioP2;P2;SDS_P1;SDS_P2;PMS_P1;PMS_P2;Temp;Humidity;BMP_temperature;BMP_pressure;BME280_temperature;BME280_humidity;BME280_pressure;Samples;Min_cycle;Max_cycle;Signal;HPM_P1;HPM_P2
2024/03/08 00:01:46;;;;;;;39.58;16.33;;;5.80;99.90;;;;;;4912183;29;20041;-79
2024/03/08 00:04:16;;;;;;;37.28;14.65;;;5.90;99.90;;;;;;4915231;29;20044;-79
2024/03/08 00:06:45;;;;;;;38.72;15.73;;;5.10;99.90;;;;;;4910855;29;20048;-79
2024/03/08 00:09:15;;;;;;;41.50;15.80;;;5.90;99.90;;;;;;4910698;29;20592;-79
2024/03/08 00:11:44;;;;;;;43.13;16.40;;;5.90;99.90;;;;;;4908784;29;20069;-79
2024/03/08 00:14:12;;;;;;;40.08;16.80;;;5.90;99.90;;;;;;4911694;29;20067;-79
2024/03/08 00:16:43;;;;;;;42.33;16.60;;;5.90;99.90;;;;;;4914408;29;20096;-79
2024/03/08 00:19:12;;;;;;;41.20;16.45;;;6.80;99.90;;;;;;4921924;29;20055;-79
2024/03/08 00:21:42;;;;;;;44.67;16.88;;;5.90;99.90;;;;;;4912792;29;20165;-79
2024/03/08 00:24:10;;;;;;;42.13;16.30;;;5.90;99.90;;;;;;4928853;29;20045;-79
2024/03/08 00:26:39;;;;;;;42.28;16.58;;;5.90;99.90;;;;;;4927229;29;20087;-79
2024/03/08 00:29:07;;;;;;;43.28;16.83;;;5.90;99.90;;;;;;4908412;29;20082;-79
2024/03/08 00:31:36;;;;;;;45.08;17.95;;;5.90;99.90;;;;;;4910582;29;20040;-78
2024/03/08 00:34:04;;;;;;;43.00;16.92;;;5.90;99.90;;;;;;4922192;29;20036;-79
2024/03/08 00:36:32;;;;;;;43.35;16.90;;;5.90;99.90;;;;;;4911598;29;20055;-80
2024/03/08 00:39:06;;;;;;;42.85;17.48;;;5.90;99.90;;;;;;4906265;29;20052;-78
2024/03/08 00:41:34;;;;;;;45.95;17.35;;;7.20;99.90;;;;;;4910297;29;20052;-79
2024/03/08 00:44:04;;;;;;;42.75;18.08;;;6.00;99.90;;;;;;4929648;29;20044;-79
2024/03/08 00:46:33;;;;;;;45.03;18.02;;;5.90;99.90;;;;;;4913769;29;20115;-79
2024/03/08 00:49:02;;;;;;;48.20;17.17;;;6.00;99.90;;;;;;4911406;29;20073;-79
2024/03/08 00:51:30;;;;;;;45.67;17.45;;;6.00;99.90;;;;;;4909153;29;20084;-79
2024/03/08 00:53:59;;;;;;;44.88;17.88;;;5.90;99.90;;;;;;4914323;29;20069;-79
2024/03/08 00:56:29;;;;;;;51.97;19.38;;;5.90;99.90;;;;;;4905541;29;20064;-78
2024/03/08 00:58:57;;;;;;;43.15;17.08;;;5.90;99.90;;;;;;4916420;29;20052;-79
2024/03/08 01:01:27;;;;;;;42.33;17.90;;;5.90;99.90;;;;;;4903696;29;20053;-79
2024/03/08 01:03:56;;;;;;;46.60;18.63;;;6.00;99.90;;;;;;4902956;29;20052;-80
2024/03/08 01:06:25;;;;;;;47.05;18.35;;;5.90;99.90;;;;;;4898956;29;20068;-79
2024/03/08 01:08:53;;;;;;;45.97;17.77;;;5.90;99.90;;;;;;4912747;29;20049;-79
2024/03/08 01:11:22;;;;;;;49.67;19.17;;;5.80;99.90;;;;;;4911784;29;20052;-79
2024/03/08 01:13:53;;;;;;;46.65;18.20;;;5.80;99.90;;;;;;4905266;29;20045;-79
2024/03/08 01:16:22;;;;;;;45.15;17.20;;;5.90;99.90;;;;;;4920010;29;20087;-78
2024/03/08 01:18:51;;;;;;;50.08;17.35;;;5.90;99.90;;;;;;4905144;29;20088;-79
2024/03/08 01:21:19;;;;;;;45.17;16.83;;;5.90;99.90;;;;;;4903496;29;20049;-78
2024/03/08 01:23:48;;;;;;;52.15;18.75;;;5.80;99.90;;;;;;4906700;29;20516;-79
2024/03/08 01:26:16;;;;;;;45.95;17.88;;;5.80;99.90;;;;;;4905298;29;20041;-78
2024/03/08 01:28:45;;;;;;;51.47;18.25;;;5.80;99.90;;;;;;4904736;29;20055;-78
2024/03/08 01:31:15;;;;;;;42.92;18.05;;;5.80;99.90;;;;;;4912440;29;20473;-79
2024/03/08 01:33:44;;;;;;;43.70;16.67;;;5.90;99.90;;;;;;4909465;29;20071;-79
2024/03/08 01:36:15;;;;;;;47.38;18.13;;;5.80;99.90;;;;;;4907659;29;20436;-79
2024/03/08 01:38:43;;;;;;;45.95;17.60;;;5.80;99.90;;;;;;4907524;29;20053;-79
2024/03/08 01:41:13;;;;;;;42.13;16.45;;;5.80;99.90;;;;;;4904346;29;20052;-79
2024/03/08 01:43:41;;;;;;;40.70;17.00;;;5.70;99.90;;;;;;4902186;29;20049;-78
2024/03/08 01:46:12;;;;;;;42.65;16.52;;;5.80;99.90;;;;;;4904096;29;20045;-79
2024/03/08 01:48:42;;;;;;;42.25;17.33;;;5.80;99.90;;;;;;4920060;29;20077;-78
2024/03/08 01:51:11;;;;;;;48.55;19.52;;;5.80;99.90;;;;;;4897809;29;20049;-78
2024/03/08 01:53:42;;;;;;;45.28;17.35;;;5.80;99.90;;;;;;4903258;29;20515;-78
2024/03/08 01:56:12;;;;;;;47.75;19.27;;;5.80;99.90;;;;;;4896958;29;20044;-78
2024/03/08 01:58:43;;;;;;;48.92;16.88;;;5.70;99.90;;;;;;4899970;29;20052;-78
2024/03/08 02:01:14;;;;;;;49.20;18.00;;;5.70;99.90;;;;;;4913313;29;20532;-78
2024/03/08 02:03:46;;;;;;;45.60;17.10;;;5.70;99.90;;;;;;4896420;29;20049;-78
2024/03/08 02:06:16;;;;;;;47.95;17.92;;;5.70;99.90;;;;;;4911693;29;20082;-78
2024/03/08 02:08:45;;;;;;;48.35;17.65;;;5.70;99.90;;;;;;4898806;29;20382;-78
2024/03/08 02:11:15;;;;;;;44.05;17.98;;;5.70;99.90;;;;;;4899026;29;20045;-78
2024/03/08 02:13:44;;;;;;;45.13;18.38;;;5.70;99.90;;;;;;4916655;29;20144;-78
2024/03/08 02:16:12;;;;;;;47.55;19.63;;;5.70;99.90;;;;;;4910926;29;20056;-78
2024/03/08 02:18:41;;;;;;;43.70;17.67;;;5.70;99.90;;;;;;4898879;29;20053;-78
2024/03/08 02:21:12;;;;;;;46.30;17.98;;;5.60;99.90;;;;;;4894704;29;20096;-78
2024/03/08 02:23:41;;;;;;;44.58;17.17;;;5.70;99.90;;;;;;4898491;29;20083;-78
2024/03/08 02:26:10;;;;;;;49.15;18.65;;;5.70;99.90;;;;;;4902008;29;20037;-78
2024/03/08 02:28:38;;;;;;;47.45;17.23;;;5.70;99.90;;;;;;4908903;29;20107;-79
2024/03/08 02:31:08;;;;;;;52.72;18.77;;;5.80;99.90;;;;;;4896373;29;20074;-78
2024/03/08 02:33:36;;;;;;;46.70;18.42;;;5.80;99.90;;;;;;4902428;29;20060;-78
2024/03/08 02:36:06;;;;;;;54.63;19.00;;;5.70;99.90;;;;;;4894413;29;20105;-78
2024/03/08 02:38:36;;;;;;;49.72;18.50;;;5.70;99.90;;;;;;4910210;29;20048;-78
2024/03/08 02:41:05;;;;;;;42.65;17.40;;;5.80;99.90;;;;;;4896046;29;20045;-78
2024/03/08 02:43:34;;;;;;;49.83;18.35;;;5.70;99.90;;;;;;4913240;29;20053;-78
2024/03/08 02:46:03;;;;;;;46.72;18.05;;;5.70;99.90;;;;;;4901421;29;20049;-79
2024/03/08 02:48:31;;;;;;;48.45;17.75;;;5.70;99.90;;;;;;4924126;29;20139;-79
2024/03/08 02:51:01;;;;;;;47.05;15.93;;;5.80;99.90;;;;;;4907680;29;20044;-78
2024/03/08 02:53:30;;;;;;;48.67;18.00;;;5.80;99.90;;;;;;4916693;29;20044;-78
2024/03/08 02:56:00;;;;;;;50.83;19.45;;;5.70;99.90;;;;;;4899880;29;20041;-79
2024/03/08 02:58:29;;;;;;;48.55;18.25;;;5.70;99.90;;;;;;4908265;29;20080;-78
2024/03/08 03:00:57;;;;;;;50.58;18.10;;;5.70;99.90;;;;;;4907147;29;20412;-78
2024/03/08 03:03:26;;;;;;;48.35;18.05;;;5.70;99.90;;;;;;4903275;29;20045;-78
2024/03/08 03:05:56;;;;;;;48.83;18.25;;;5.60;99.90;;;;;;4909323;29;20053;-79
2024/03/08 03:08:25;;;;;;;51.97;18.38;;;5.70;99.90;;;;;;4918716;29;20051;-79
2024/03/08 03:10:56;;;;;;;54.80;18.60;;;5.80;99.90;;;;;;4900200;29;20049;-78
2024/03/08 03:13:29;;;;;;;46.20;17.85;;;5.60;99.90;;;;;;4921455;29;20048;-78
2024/03/08 03:15:58;;;;;;;48.28;18.67;;;5.70;99.90;;;;;;4911104;29;20135;-79
2024/03/08 03:18:27;;;;;;;51.95;17.13;;;5.70;99.90;;;;;;4924251;29;20048;-79
2024/03/08 03:20:56;;;;;;;48.30;18.70;;;5.70;99.90;;;;;;4913395;29;20108;-79
2024/03/08 03:23:26;;;;;;;45.83;17.45;;;5.70;99.90;;;;;;4903500;29;20057;-79
2024/03/08 03:25:57;;;;;;;46.85;16.48;;;5.70;99.90;;;;;;4920063;29;20051;-78
2024/03/08 03:28:28;;;;;;;48.53;18.13;;;5.80;99.90;;;;;;4908607;29;20040;-78
2024/03/08 03:30:58;;;;;;;45.30;15.98;;;5.70;99.90;;;;;;4910011;29;20497;-78
2024/03/08 03:33:27;;;;;;;50.95;18.30;;;5.70;99.90;;;;;;4904340;29;20239;-78
2024/03/08 03:35:55;;;;;;;49.33;17.55;;;6.00;99.90;;;;;;4902530;29;20044;-78
2024/03/08 03:38:25;;;;;;;46.83;19.00;;;5.70;99.90;;;;;;4902261;29;20048;-78
2024/03/08 03:40:57;;;;;;;50.35;18.58;;;5.70;99.90;;;;;;4902543;29;20104;-79
2024/03/08 03:43:27;;;;;;;51.25;18.15;;;5.70;99.90;;;;;;4919136;29;20120;-79
2024/03/08 03:45:56;;;;;;;55.55;19.13;;;5.10;99.90;;;;;;4916845;29;20079;-78
2024/03/08 03:48:24;;;;;;;52.22;17.67;;;5.70;99.90;;;;;;4918165;29;20092;-79
2024/03/08 03:50:53;;;;;;;58.92;19.85;;;5.60;99.90;;;;;;4900161;29;20037;-78
2024/03/08 03:53:22;;;;;;;50.22;17.52;;;5.70;99.90;;;;;;4921343;29;20053;-79
2024/03/08 03:55:50;;;;;;;53.58;19.25;;;5.70;99.90;;;;;;4902980;29;20053;-79
2024/03/08 03:58:22;;;;;;;48.95;19.08;;;5.70;99.90;;;;;;4908661;29;20545;-79
2024/03/08 04:00:52;;;;;;;54.33;19.38;;;5.70;99.90;;;;;;4917792;29;20048;-79
2024/03/08 04:03:24;;;;;;;48.10;17.42;;;5.60;99.90;;;;;;4908365;29;20062;-79
2024/03/08 04:05:54;;;;;;;50.22;18.75;;;5.60;99.90;;;;;;4898998;29;22957;-79
2024/03/08 04:08:27;;;;;;;48.13;17.58;;;5.60;99.90;;;;;;4917989;29;20052;-79
2024/03/08 04:11:10;;;;;;;47.90;18.17;;;5.70;99.90;;;;;;4903723;29;20508;-80
2024/03/08 04:13:49;;;;;;;51.05;18.65;;;5.70;99.90;;;;;;4904480;29;20139;-78
2024/03/08 04:16:21;;;;;;;46.70;18.55;;;5.60;99.90;;;;;;4909650;29;20057;-79
2024/03/08 04:18:50;;;;;;;52.08;18.77;;;5.70;99.90;;;;;;4910836;29;20071;-79
2024/03/08 04:21:19;;;;;;;52.17;18.67;;;5.60;99.90;;;;;;4914053;29;20060;-78
2024/03/08 04:23:49;;;;;;;47.17;18.02;;;5.60;99.90;;;;;;4913517;29;20063;-79
2024/03/08 04:26:18;;;;;;;53.17;18.65;;;5.60;99.90;;;;;;4921963;29;20064;-79
2024/03/08 04:28:48;;;;;;;55.75;19.45;;;5.60;99.90;;;;;;4946846;29;20191;-79
2024/03/08 04:31:17;;;;;;;52.55;20.13;;;5.70;99.90;;;;;;4944346;29;20142;-79
2024/03/08 04:33:48;;;;;;;49.85;18.58;;;5.70;99.90;;;;;;4945050;29;20044;-78
2024/03/08 04:36:16;;;;;;;54.05;19.38;;;5.60;99.90;;;;;;4942353;29;20040;-79
2024/03/08 04:38:47;;;;;;;48.65;18.88;;;6.80;99.90;;;;;;4948330;29;20066;-79
2024/03/08 04:41:17;;;;;;;57.03;19.40;;;5.60;99.90;;;;;;4918726;29;20124;-78
2024/03/08 04:43:46;;;;;;;50.30;17.90;;;5.60;99.90;;;;;;4954509;29;20057;-79
2024/03/08 04:46:16;;;;;;;49.25;18.60;;;4.70;99.90;;;;;;4931987;29;20535;-79
2024/03/08 04:48:48;;;;;;;48.63;18.83;;;5.70;99.90;;;;;;4940712;29;20064;-79
2024/03/08 04:51:19;;;;;;;48.97;17.42;;;5.60;99.90;;;;;;4942637;29;20054;-78
2024/03/08 04:53:51;;;;;;;55.25;19.40;;;5.50;99.90;;;;;;4926737;29;20047;-78
2024/03/08 04:56:20;;;;;;;47.22;18.75;;;5.50;99.90;;;;;;4925663;29;20048;-79
2024/03/08 04:58:50;;;;;;;53.08;17.85;;;5.50;99.90;;;;;;4943919;29;20072;-79
2024/03/08 05:01:20;;;;;;;48.15;18.52;;;5.50;99.90;;;;;;4940388;29;21142;-79
2024/03/08 05:03:56;;;;;;;47.45;17.50;;;5.60;99.90;;;;;;4947941;29;20059;-79
2024/03/08 05:06:36;;;;;;;51.97;19.02;;;5.60;99.90;;;;;;4943383;29;20055;-79
2024/03/08 05:09:13;;;;;;;49.80;19.00;;;5.60;99.90;;;;;;4940561;29;20080;-78
2024/03/08 05:11:43;;;;;;;46.58;18.42;;;5.60;99.90;;;;;;4930638;29;20138;-78
2024/03/08 05:14:16;;;;;;;58.47;20.13;;;5.50;99.90;;;;;;4916986;29;20065;-79
2024/03/08 05:16:48;;;;;;;;;;;5.50;99.90;;;;;;4907080;29;20074;-79
2024/03/08 05:19:20;;;;;;;44.63;16.63;;;5.50;99.90;;;;;;4898264;29;20340;-79
2024/03/08 05:21:51;;;;;;;;;;;5.60;99.90;;;;;;4904822;29;20057;-79
2024/03/08 05:24:20;;;;;;;52.97;18.23;;;5.60;99.90;;;;;;4886983;29;19923;-79
2024/03/08 05:26:52;;;;;;;54.88;19.38;;;5.70;99.90;;;;;;4924536;29;20205;-79
2024/03/08 05:29:23;;;;;;;;;;;5.70;99.90;;;;;;4909431;29;20052;-79
2024/03/08 05:31:53;;;;;;;51.03;18.55;;;5.70;99.90;;;;;;4909378;29;20291;-78
2024/03/08 05:34:30;;;;;;;56.30;19.75;;;5.90;99.90;;;;;;4913694;29;20048;-79
2024/03/08 05:37:16;;;;;;;45.80;17.15;;;5.70;99.90;;;;;;4913058;29;20044;-78
2024/03/08 05:39:46;;;;;;;45.65;17.77;;;5.60;99.90;;;;;;4900159;29;20497;-78
2024/03/08 05:42:15;;;;;;;47.40;18.02;;;5.50;99.90;;;;;;4901620;29;20048;-79
2024/03/08 05:44:44;;;;;;;48.45;19.27;;;5.50;99.90;;;;;;4893269;29;20076;-78
2024/03/08 05:47:15;;;;;;;50.42;17.88;;;5.50;99.90;;;;;;4900286;29;20052;-79
2024/03/08 05:49:47;;;;;;;45.60;16.97;;;5.50;99.90;;;;;;4907727;29;20056;-78
2024/03/08 05:52:25;;;;;;;49.38;18.60;;;5.50;99.90;;;;;;4908244;29;20363;-79
2024/03/08 05:55:15;;;;;;;50.05;18.23;;;5.50;99.90;;;;;;4905637;29;20057;-79
2024/03/08 05:57:44;;;;;;;46.72;17.33;;;5.50;99.90;;;;;;4897764;29;20071;-78
2024/03/08 06:00:15;;;;;;;49.42;17.20;;;5.50;99.90;;;;;;4907937;29;20116;-78
2024/03/08 06:02:44;;;;;;;50.28;17.42;;;5.50;99.90;;;;;;4902470;29;20059;-78
2024/03/08 06:05:16;;;;;;;45.90;17.48;;;5.50;99.90;;;;;;4895418;29;20511;-78
2024/03/08 06:07:45;;;;;;;49.03;17.77;;;5.60;99.90;;;;;;4899815;29;20048;-78
2024/03/08 06:10:20;;;;;;;49.80;17.10;;;5.50;99.90;;;;;;4906671;29;20052;-78
2024/03/08 06:12:51;;;;;;;53.35;19.23;;;5.50;99.90;;;;;;4908112;29;20512;-77
2024/03/08 06:19:56;;;;;;;52.08;19.85;;;5.50;99.90;;;;;;4839164;29;20567;-79
2024/03/08 06:28:08;;;;;;;49.95;18.88;;;5.50;99.90;;;;;;4800912;29;20066;-79
2024/03/08 06:30:54;;;;;;;50.25;18.85;;;5.60;99.90;;;;;;4788405;30;20060;-79
2024/03/08 06:33:26;;;;;;;45.58;17.70;;;5.50;99.90;;;;;;4737001;30;20056;-78
2024/03/08 06:35:57;;;;;;;48.22;16.95;;;5.60;99.90;;;;;;4769324;30;20067;-79
2024/03/08 06:38:35;;;;;;;51.45;18.92;;;5.60;99.90;;;;;;4804124;30;20635;-77
2024/03/08 06:41:07;;;;;;;53.28;19.20;;;5.60;99.90;;;;;;4765526;30;20110;-78
2024/03/08 06:43:48;;;;;;;54.38;18.98;;;5.50;99.90;;;;;;4759188;30;20048;-78
2024/03/08 06:46:21;;;;;;;48.33;18.55;;;5.60;99.90;;;;;;4774234;30;20055;-78
2024/03/08 06:48:55;;;;;;;54.83;18.00;;;5.50;99.90;;;;;;4780577;29;20066;-79
2024/03/08 06:51:28;;;;;;;48.80;18.80;;;5.90;99.90;;;;;;4780858;30;20064;-79
2024/03/08 06:53:58;;;;;;;43.78;17.58;;;5.50;99.90;;;;;;4765094;30;20063;-79
2024/03/08 06:56:36;;;;;;;46.92;17.83;;;5.60;99.90;;;;;;4766880;30;20059;-79
2024/03/08 06:59:12;;;;;;;51.88;17.25;;;5.60;99.90;;;;;;4754087;30;20076;-77
2024/03/08 07:01:44;;;;;;;52.92;18.35;;;5.50;99.90;;;;;;4757931;30;20055;-78
2024/03/08 07:04:26;;;;;;;48.40;17.85;;;5.50;99.90;;;;;;4836369;29;20117;-79
2024/03/08 07:06:57;;;;;;;49.65;18.02;;;5.50;99.90;;;;;;4851101;29;20132;-79
2024/03/08 07:09:36;;;;;;;48.10;17.17;;;5.60;99.90;;;;;;4824842;29;20164;-79
2024/03/08 07:12:09;;;;;;;50.70;18.25;;;5.70;99.90;;;;;;4848718;29;20049;-78
2024/03/08 07:15:04;;;;;;;42.83;15.18;;;5.60;99.90;;;;;;4841837;29;20054;-79
2024/03/08 07:17:35;;;;;;;49.95;17.98;;;5.60;99.90;;;;;;4828985;29;20053;-79
2024/03/08 07:20:11;;;;;;;47.47;18.35;;;5.70;99.90;;;;;;4846356;29;20049;-78
2024/03/08 07:22:47;;;;;;;45.72;17.48;;;5.70;99.90;;;;;;4868890;29;20061;-79
2024/03/08 07:25:30;;;;;;;45.63;17.25;;;5.70;99.90;;;;;;4908497;29;20050;-79
2024/03/08 07:28:03;;;;;;;51.95;18.17;;;5.70;99.90;;;;;;4906162;29;20045;-79
2024/03/08 07:31:08;;;;;;;53.43;18.33;;;5.70;99.90;;;;;;4891551;29;20534;-79
2024/03/08 07:33:38;;;;;;;54.10;18.55;;;5.70;99.90;;;;;;4910898;29;20299;-79
2024/03/08 07:38:50;;;;;;;48.72;18.20;;;5.80;99.90;;;;;;4905129;29;20044;-79
2024/03/08 07:41:20;;;;;;;57.08;18.85;;;5.80;99.90;;;;;;4916215;29;20100;-79
2024/03/08 07:43:50;;;;;;;49.83;18.48;;;5.90;99.90;;;;;;4915642;29;20107;-79
2024/03/08 07:46:22;;;;;;;43.55;14.77;;;5.90;99.90;;;;;;4923205;29;20416;-78
2024/03/08 07:48:52;;;;;;;52.33;16.63;;;5.90;99.90;;;;;;4921037;29;20044;-79
2024/03/08 07:51:23;;;;;;;49.45;18.30;;;5.90;99.90;;;;;;4930452;29;20052;-79
2024/03/08 07:53:51;;;;;;;54.50;18.17;;;5.90;99.90;;;;;;4921951;29;20571;-79
2024/03/08 07:56:22;;;;;;;50.08;18.38;;;5.90;99.90;;;;;;4912855;29;20122;-78
2024/03/08 07:58:55;;;;;;;55.67;17.70;;;5.90;99.90;;;;;;4900167;29;20051;-78
2024/03/08 08:01:26;;;;;;;55.40;18.38;;;6.10;99.90;;;;;;4913776;29;20572;-80
2024/03/08 08:04:11;;;;;;;49.17;16.05;;;6.20;99.90;;;;;;4920843;29;20427;-80
2024/03/08 08:06:42;;;;;;;43.00;14.75;;;6.30;99.90;;;;;;4911913;29;20048;-80
2024/03/08 08:09:14;;;;;;;53.45;19.65;;;6.40;99.90;;;;;;4928096;29;20039;-79
2024/03/08 08:11:43;;;;;;;50.77;17.73;;;6.30;99.90;;;;;;4921091;29;20043;-79
2024/03/08 08:14:12;;;;;;;56.53;19.13;;;6.40;99.90;;;;;;4928295;29;20051;-81
2024/03/08 08:16:45;;;;;;;53.90;18.90;;;6.60;99.90;;;;;;4913877;29;20051;-78
2024/03/08 08:19:16;;;;;;;54.22;19.77;;;6.80;99.90;;;;;;4909004;29;20052;-79
2024/03/08 08:21:44;;;;;;;52.95;17.45;;;6.80;99.90;;;;;;4904554;29;20184;-78
2024/03/08 08:24:20;;;;;;;54.92;17.88;;;6.90;99.90;;;;;;4904506;29;20076;-76
2024/03/08 08:26:49;;;;;;;49.67;17.98;;;7.00;99.90;;;;;;4908140;29;20080;-79
2024/03/08 08:29:18;;;;;;;52.83;19.00;;;6.90;99.90;;;;;;4894114;29;20396;-79
2024/03/08 08:31:50;;;;;;;42.72;17.70;;;6.90;99.90;;;;;;4852214;29;20060;-83
2024/03/08 08:34:21;;;;;;;51.72;17.95;;;7.00;99.90;;;;;;4892344;29;20049;-80
2024/03/08 08:36:54;;;;;;;42.47;14.32;;;7.20;99.90;;;;;;4904204;29;20137;-79
2024/03/08 08:39:22;;;;;;;44.25;16.20;;;7.30;99.90;;;;;;4878626;29;20044;-78
2024/03/08 08:41:52;;;;;;;47.55;18.15;;;7.20;99.90;;;;;;4884466;29;20155;-81
2024/03/08 08:44:24;;;;;;;54.95;19.17;;;7.20;99.90;;;;;;4886252;29;20466;-84
2024/03/08 08:46:55;;;;;;;46.35;15.63;;;7.10;99.90;;;;;;4871798;29;20462;-83
2024/03/08 08:49:35;;;;;;;47.03;16.35;;;7.10;99.90;;;;;;4875867;29;20041;-78
2024/03/08 08:52:05;;;;;;;42.30;17.23;;;7.10;99.90;;;;;;4892226;29;20124;-79
2024/03/08 08:54:45;;;;;;;44.60;15.77;;;7.20;99.90;;;;;;4893578;29;20048;-78
2024/03/08 08:57:17;;;;;;;;;;;7.20;99.90;;;;;;4877036;29;20048;-80
2024/03/08 08:59:50;;;;;;;40.45;16.88;;;7.30;99.90;;;;;;4885262;29;19963;-79
2024/03/08 09:02:20;;;;;;;;;;;7.40;99.90;;;;;;4887426;29;20048;-80
2024/03/08 09:04:50;;;;;;;39.88;15.30;;;7.40;99.90;;;;;;4891911;29;19934;-79
2024/03/08 09:07:26;;;;;;;43.33;17.07;;;7.30;99.90;;;;;;4902554;29;20052;-85
2024/03/08 09:09:58;;;;;;;45.67;17.05;;;7.30;99.90;;;;;;4887984;29;20040;-78
2024/03/08 09:12:27;;;;;;;44.70;17.90;;;7.30;99.90;;;;;;4892388;29;20131;-79
2024/03/08 09:14:59;;;;;;;48.42;17.30;;;7.20;99.90;;;;;;4895344;29;20304;-83
2024/03/08 09:17:30;;;;;;;46.50;16.92;;;7.20;99.90;;;;;;4900931;29;20517;-83
2024/03/08 09:19:59;;;;;;;45.58;16.02;;;7.30;99.90;;;;;;4871369;29;20044;-80
2024/03/08 09:22:28;;;;;;;44.60;17.73;;;7.30;99.90;;;;;;4908808;29;20076;-80
2024/03/08 09:24:57;;;;;;;41.78;16.80;;;7.30;99.90;;;;;;4900023;29;20121;-83
2024/03/08 09:27:25;;;;;;;46.03;16.90;;;7.30;99.90;;;;;;4901967;29;20044;-82
2024/03/08 09:29:54;;;;;;;43.08;16.95;;;7.40;99.90;;;;;;4886011;29;20084;-83
2024/03/08 09:32:26;;;;;;;42.65;17.00;;;7.50;99.90;;;;;;4889705;29;20474;-79
2024/03/08 09:34:58;;;;;;;45.95;17.13;;;7.50;99.90;;;;;;4886738;29;20045;-84
2024/03/08 09:37:27;;;;;;;44.30;17.65;;;7.40;99.90;;;;;;4899444;29;20057;-86
2024/03/08 09:39:56;;;;;;;44.15;17.00;;;7.40;99.90;;;;;;4886861;29;20131;-82
2024/03/08 09:42:24;;;;;;;47.58;18.38;;;7.30;99.90;;;;;;4890627;29;20084;-84
2024/03/08 09:44:53;;;;;;;42.60;16.00;;;7.30;99.90;;;;;;4906302;29;20048;-81
2024/03/08 09:47:29;;;;;;;38.30;16.05;;;7.30;99.90;;;;;;4908329;29;20097;-85
2024/03/08 09:50:02;;;;;;;45.20;18.15;;;7.20;99.90;;;;;;4894985;29;20053;-84
2024/03/08 09:52:32;;;;;;;47.28;18.35;;;7.20;99.90;;;;;;4890216;29;20144;-83
2024/03/08 09:55:02;;;;;;;45.10;17.95;;;7.30;99.90;;;;;;4908776;29;20048;-84
2024/03/08 09:57:37;;;;;;;46.88;16.30;;;7.30;99.90;;;;;;4903460;29;20126;-81
2024/03/08 10:00:18;;;;;;;43.80;17.63;;;7.20;99.90;;;;;;4898934;29;20052;-81
2024/03/08 10:02:54;;;;;;;44.50;16.20;;;7.20;99.90;;;;;;4894023;29;20048;-79
2024/03/08 10:05:24;;;;;;;45.20;19.80;;;7.20;99.90;;;;;;4895659;29;20049;-83
2024/03/08 10:07:55;;;;;;;47.78;19.23;;;7.20;99.90;;;;;;4844239;29;20129;-80
2024/03/08 10:10:23;;;;;;;42.17;15.52;;;7.20;99.90;;;;;;4897354;29;20569;-79
2024/03/08 10:12:54;;;;;;;47.63;18.85;;;7.20;99.90;;;;;;4886880;29;20084;-83
2024/03/08 10:15:24;;;;;;;49.45;17.85;;;7.20;99.90;;;;;;4895326;29;20061;-83
2024/03/08 10:17:53;;;;;;;49.85;18.02;;;7.20;99.90;;;;;;4893307;29;20516;-84
2024/03/08 10:20:34;;;;;;;53.97;18.33;;;7.30;99.90;;;;;;4893215;29;20108;-78
2024/03/08 10:23:06;;;;;;;46.58;19.27;;;7.40;99.90;;;;;;4907286;29;20060;-84
2024/03/08 10:25:42;;;;;;;44.40;18.52;;;7.30;99.90;;;;;;4893790;29;20411;-82
2024/03/08 10:28:10;;;;;;;49.50;17.73;;;7.40;99.90;;;;;;4893844;29;20043;-80
2024/03/08 10:30:39;;;;;;;47.45;16.95;;;7.40;99.90;;;;;;4895217;29;20045;-85
2024/03/08 10:33:08;;;;;;;47.60;17.75;;;7.40;99.90;;;;;;4893453;29;20072;-83
2024/03/08 10:35:38;;;;;;;44.10;17.52;;;7.40;99.90;;;;;;4891291;29;20044;-83
2024/03/08 10:38:10;;;;;;;46.92;18.77;;;7.40;99.90;;;;;;4891391;29;20037;-84
2024/03/08 10:40:41;;;;;;;47.97;19.05;;;7.40;99.90;;;;;;4892229;29;20672;-83
2024/03/08 10:43:20;;;;;;;44.40;18.05;;;7.50;99.90;;;;;;4893141;29;20059;-85
2024/03/08 10:45:49;;;;;;;50.95;19.50;;;7.50;99.90;;;;;;4892883;29;20044;-84
2024/03/08 10:48:31;;;;;;;49.33;18.38;;;7.50;99.90;;;;;;4904436;29;20060;-81
2024/03/08 10:51:11;;;;;;;42.85;17.15;;;7.50;99.90;;;;;;4891948;29;20044;-84
2024/03/08 10:53:41;;;;;;;40.45;17.13;;;7.60;99.90;;;;;;4892206;29;20056;-84
2024/03/08 10:56:10;;;;;;;43.70;17.80;;;7.60;99.90;;;;;;4902242;29;20084;-83
2024/03/08 10:58:39;;;;;;;41.35;16.02;;;7.70;99.90;;;;;;4902754;29;20147;-84
2024/03/08 11:01:10;;;;;;;45.95;17.00;;;7.90;99.90;;;;;;4889562;29;20041;-84
2024/03/08 11:03:46;;;;;;;51.33;19.02;;;8.20;99.90;;;;;;4890057;29;20131;-85
2024/03/08 11:06:22;;;;;;;48.60;20.48;;;8.30;99.90;;;;;;4904010;29;20151;-85
2024/03/08 11:08:52;;;;;;;34.22;15.15;;;8.50;99.90;;;;;;4904473;29;20056;-85
2024/03/08 11:11:31;;;;;;;37.03;15.70;;;8.60;99.90;;;;;;4891820;29;20131;-85
2024/03/08 11:14:03;;;;;;;34.67;14.65;;;8.60;99.90;;;;;;4903310;29;20474;-86
2024/03/08 11:16:43;;;;;;;29.42;15.60;;;8.70;99.90;;;;;;4901031;29;20060;-86
2024/03/08 11:19:31;;;;;;;33.53;14.35;;;8.70;99.90;;;;;;4905854;29;20056;-84
2024/03/08 11:22:02;;;;;;;29.02;13.38;;;8.50;99.90;;;;;;4902597;29;20048;-86
2024/03/08 11:24:41;;;;;;;26.60;11.68;;;8.50;99.90;;;;;;4890078;29;20156;-85
2024/03/08 11:27:11;;;;;;;26.30;11.57;;;8.50;99.90;;;;;;4885397;29;20096;-83
2024/03/08 11:29:40;;;;;;;25.65;11.30;;;8.40;99.90;;;;;;4904043;29;20141;-85
2024/03/08 11:32:09;;;;;;;22.58;11.63;;;8.30;99.90;;;;;;4901860;29;20587;-84
2024/03/08 11:34:38;;;;;;;16.42;8.85;;;8.30;99.90;;;;;;4899349;29;20082;-80
2024/03/08 11:37:14;;;;;;;17.05;8.65;;;8.30;99.90;;;;;;4891073;29;20052;-81
2024/03/08 11:39:49;;;;;;;18.52;8.55;;;8.40;99.90;;;;;;4903617;29;20079;-82
2024/03/08 11:42:18;;;;;;;15.82;7.10;;;8.30;99.90;;;;;;4888523;29;20584;-80
2024/03/08 11:44:47;;;;;;;14.55;8.00;;;8.40;99.90;;;;;;4889395;29;20048;-80
2024/03/08 11:47:17;;;;;;;15.68;8.43;;;8.40;99.90;;;;;;4888012;29;20521;-79
2024/03/08 11:49:47;;;;;;;16.67;9.00;;;8.50;99.90;;;;;;4905617;29;20132;-80
2024/03/08 11:52:19;;;;;;;16.67;9.00;;;8.60;99.90;;;;;;4892283;29;20135;-80
2024/03/08 11:54:56;;;;;;;19.15;10.15;;;8.60;99.90;;;;;;4891953;29;20052;-80
2024/03/08 11:57:28;;;;;;;14.50;8.25;;;8.60;99.90;;;;;;4904200;29;20048;-83
2024/03/08 11:59:58;;;;;;;15.25;8.02;;;8.60;99.90;;;;;;4890080;29;20071;-88
2024/03/08 12:02:27;;;;;;;14.05;8.18;;;8.60;99.90;;;;;;4900689;29;20497;-80
2024/03/08 12:05:00;;;;;;;14.73;7.25;;;8.50;99.90;;;;;;4899233;29;20238;-79
2024/03/08 12:07:32;;;;;;;14.98;8.05;;;8.40;99.90;;;;;;4891347;29;20056;-82
2024/03/08 12:10:18;;;;;;;14.48;8.30;;;8.40;99.90;;;;;;4905270;29;20052;-83
2024/03/08 12:12:47;;;;;;;13.88;9.07;;;8.40;99.90;;;;;;4909351;29;20485;-80
2024/03/08 12:15:17;;;;;;;14.85;8.10;;;8.50;99.90;;;;;;4889395;29;20053;-81
2024/03/08 12:17:48;;;;;;;15.50;8.23;;;8.50;99.90;;;;;;4903539;29;20052;-80
2024/03/08 12:20:18;;;;;;;14.05;7.25;;;8.50;99.90;;;;;;4891430;29;20048;-80
2024/03/08 12:22:48;;;;;;;14.25;7.20;;;8.60;99.90;;;;;;4890068;29;20100;-78
2024/03/08 12:25:17;;;;;;;14.73;8.50;;;8.50;99.90;;;;;;4889141;29;20061;-81
2024/03/08 12:27:45;;;;;;;16.00;8.70;;;8.50;99.90;;;;;;4906145;29;20040;-79
2024/03/08 12:30:22;;;;;;;17.92;8.77;;;8.40;99.90;;;;;;4900500;29;20108;-81
2024/03/08 12:32:54;;;;;;;18.27;9.15;;;8.40;99.90;;;;;;4892822;29;20059;-82
2024/03/08 12:35:23;;;;;;;15.50;7.80;;;8.30;99.90;;;;;;4901958;29;20493;-85
2024/03/08 12:37:54;;;;;;;19.73;10.07;;;8.20;99.90;;;;;;4888183;29;20088;-84
2024/03/08 12:40:31;;;;;;;16.40;8.32;;;8.20;99.90;;;;;;4894356;29;20378;-77
2024/03/08 12:43:00;;;;;;;21.27;10.40;;;8.20;99.90;;;;;;4900840;29;20053;-78
2024/03/08 12:45:29;;;;;;;28.25;14.65;;;8.20;99.90;;;;;;4887488;29;20108;-81
2024/03/08 12:47:58;;;;;;;41.15;22.13;;;8.20;99.90;;;;;;4905518;29;20052;-84
2024/03/08 12:50:27;;;;;;;25.10;12.07;;;8.20;99.90;;;;;;4903283;29;20049;-82
2024/03/08 12:52:59;;;;;;;20.30;11.25;;;8.20;99.90;;;;;;4906661;29;20055;-79
2024/03/08 12:55:28;;;;;;;18.10;9.65;;;8.20;99.90;;;;;;4903072;29;20057;-78
2024/03/08 12:57:58;;;;;;;14.85;8.60;;;8.10;99.90;;;;;;4884029;29;20097;-85
2024/03/08 13:00:28;;;;;;;15.90;7.15;;;8.10;99.90;;;;;;4886872;29;20080;-77
2024/03/08 13:02:56;;;;;;;16.45;9.00;;;8.10;99.90;;;;;;4887727;29;20048;-82
2024/03/08 13:05:25;;;;;;;14.38;6.65;;;8.10;99.90;;;;;;4900880;29;20564;-81
2024/03/08 13:07:54;;;;;;;16.40;7.50;;;8.10;99.90;;;;;;4883297;29;20416;-82
2024/03/08 13:10:24;;;;;;;17.40;7.82;;;8.10;99.90;;;;;;4894679;29;20554;-78
2024/03/08 13:12:54;;;;;;;46.15;19.17;;;8.10;99.90;;;;;;4897525;29;20084;-82
2024/03/08 13:15:23;;;;;;;39.72;18.75;;;8.10;99.90;;;;;;4893529;29;20482;-85